sensor_id;sensor_type;location;lat;lon;timestamp;pressure;altitude;pressure_sealevel;temperature;humidity
13952;BME280;39535;52.192;9.886;2023-03-21T00:01:26;100559.53;;;8.32;94.21
13952;BME280;39535;52.192;9.886;2023-03-21T00:03:54;100539.63;;;8.32;95.05
13952;BME280;39535;52.192;9.886;2023-03-21T00:06:20;100541.25;;;8.47;94.44
13952;BME280;39535;52.192;9.886;2023-03-21T00:08:47;100542.94;;;8.51;94.68
13952;BME280;39535;52.192;9.886;2023-03-21T00:11:13;100534.28;;;8.51;94.92
13952;BME280;39535;52.192;9.886;2023-03-21T00:13:40;100543.88;;;8.40;95.02
13952;BME280;39535;52.192;9.886;2023-03-21T00:16:09;100522.19;;;8.47;95.27
13952;BME280;39535;52.192;9.886;2023-03-21T00:18:40;100535.19;;;8.45;95.37
13952;BME280;39535;52.192;9.886;2023-03-21T00:21:10;100523.91;;;8.40;95.74
13952;BME280;39535;52.192;9.886;2023-03-21T00:23:37;100516.22;;;8.29;96.23
13952;BME280;39535;52.192;9.886;2023-03-21T00:26:04;100503.22;;;8.26;96.71
13952;BME280;39535;52.192;9.886;2023-03-21T00:28:30;100509.31;;;8.27;96.51
13952;BME280;39535;52.192;9.886;2023-03-21T00:30:57;100499.78;;;8.26;96.99
13952;BME280;39535;52.192;9.886;2023-03-21T00:33:24;100491.28;;;8.07;97.65
13952;BME280;39535;52.192;9.886;2023-03-21T00:35:50;100479.03;;;8.20;98.12
13952;BME280;39535;52.192;9.886;2023-03-21T00:38:19;100484.13;;;8.30;97.20
13952;BME280;39535;52.192;9.886;2023-03-21T00:40:46;100485.00;;;8.31;97.38
13952;BME280;39535;52.192;9.886;2023-03-21T00:43:12;100487.66;;;8.23;97.74
13952;BME280;39535;52.192;9.886;2023-03-21T00:45:41;100483.38;;;8.21;98.05
13952;BME280;39535;52.192;9.886;2023-03-21T00:48:08;100480.59;;;8.38;97.24
13952;BME280;39535;52.192;9.886;2023-03-21T00:50:35;100494.59;;;8.24;96.79
13952;BME280;39535;52.192;9.886;2023-03-21T00:53:01;100499.69;;;8.37;97.25
13952;BME280;39535;52.192;9.886;2023-03-21T00:55:29;100503.13;;;8.42;97.07
13952;BME280;39535;52.192;9.886;2023-03-21T00:57:55;100500.47;;;8.52;96.87
13952;BME280;39535;52.192;9.886;2023-03-21T01:00:22;100508.25;;;8.51;96.93
13952;BME280;39535;52.192;9.886;2023-03-21T01:02:48;100499.63;;;8.46;97.05
13952;BME280;39535;52.192;9.886;2023-03-21T01:05:22;100498.91;;;8.27;97.17
13952;BME280;39535;52.192;9.886;2023-03-21T01:08:09;100467.72;;;8.24;98.40
13952;BME280;39535;52.192;9.886;2023-03-21T01:10:39;100474.59;;;8.32;98.24
13952;BME280;39535;52.192;9.886;2023-03-21T01:13:06;100459.13;;;8.17;99.37
13952;BME280;39535;52.192;9.886;2023-03-21T01:15:32;100457.31;;;8.22;98.55
13952;BME280;39535;52.192;9.886;2023-03-21T01:17:59;100465.09;;;8.27;98.58
13952;BME280;39535;52.192;9.886;2023-03-21T01:20:25;100468.56;;;8.24;99.11
13952;BME280;39535;52.192;9.886;2023-03-21T01:22:51;100460.81;;;8.20;99.19
13952;BME280;39535;52.192;9.886;2023-03-21T01:25:18;100443.47;;;8.23;99.65
13952;BME280;39535;52.192;9.886;2023-03-21T01:27:46;100443.47;;;8.25;99.98
13952;BME280;39535;52.192;9.886;2023-03-21T01:30:12;100451.13;;;8.37;99.49
13952;BME280;39535;52.192;9.886;2023-03-21T01:32:38;100460.63;;;8.44;99.01
13952;BME280;39535;52.192;9.886;2023-03-21T01:35:05;100473.59;;;8.50;98.33
13952;BME280;39535;52.192;9.886;2023-03-21T01:37:32;100486.56;;;8.53;98.34
13952;BME280;39535;52.192;9.886;2023-03-21T01:39:58;100479.59;;;8.54;98.48
13952;BME280;39535;52.192;9.886;2023-03-21T01:42:25;100477.06;;;8.48;98.11
13952;BME280;39535;52.192;9.886;2023-03-21T01:44:54;100475.31;;;8.50;98.53
13952;BME280;39535;52.192;9.886;2023-03-21T01:47:22;100490.00;;;8.55;97.89
13952;BME280;39535;52.192;9.886;2023-03-21T01:49:49;100479.59;;;8.54;98.41
13952;BME280;39535;52.192;9.886;2023-03-21T01:52:19;100482.13;;;8.62;98.07
13952;BME280;39535;52.192;9.886;2023-03-21T01:54:48;100489.09;;;8.61;97.99
13952;BME280;39535;52.192;9.886;2023-03-21T01:57:20;100471.94;;;8.35;99.31
13952;BME280;39535;52.192;9.886;2023-03-21T01:59:49;100457.19;;;8.38;99.78
13952;BME280;39535;52.192;9.886;2023-03-21T02:02:20;100438.19;;;8.29;100.00
13952;BME280;39535;52.192;9.886;2023-03-21T02:04:48;100426.03;;;8.31;100.00
13952;BME280;39535;52.192;9.886;2023-03-21T02:07:24;100425.13;;;8.39;100.00
13952;BME280;39535;52.192;9.886;2023-03-21T02:09:53;100420.84;;;8.28;100.00
13952;BME280;39535;52.192;9.886;2023-03-21T02:12:20;100410.44;;;8.30;100.00
13952;BME280;39535;52.192;9.886;2023-03-21T02:14:47;100406.91;;;8.37;100.00
13952;BME280;39535;52.192;9.886;2023-03-21T02:17:20;100408.56;;;8.47;100.00
13952;BME280;39535;52.192;9.886;2023-03-21T02:20:19;100412.84;;;8.54;100.00
13952;BME280;39535;52.192;9.886;2023-03-21T02:26:37;100418.91;;;8.52;100.00
13952;BME280;39535;52.192;9.886;2023-03-21T02:29:24;100421.53;;;8.52;100.00
13952;BME280;39535;52.192;9.886;2023-03-21T02:32:04;100425.78;;;8.62;99.69
13952;BME280;39535;52.192;9.886;2023-03-21T02:34:49;100433.50;;;8.67;99.56
13952;BME280;39535;52.192;9.886;2023-03-21T02:37:23;100439.78;;;8.50;99.85
13952;BME280;39535;52.192;9.886;2023-03-21T02:40:02;100446.63;;;8.56;99.43
13952;BME280;39535;52.192;9.886;2023-03-21T02:42:42;100451.75;;;8.65;99.03
13952;BME280;39535;52.192;9.886;2023-03-21T02:45:14;100450.06;;;8.61;99.41
13952;BME280;39535;52.192;9.886;2023-03-21T02:47:43;100453.50;;;8.65;98.86
13952;BME280;39535;52.192;9.886;2023-03-21T02:50:15;100441.34;;;8.64;99.62
13952;BME280;39535;52.192;9.886;2023-03-21T02:52:46;100439.66;;;8.58;99.31
13952;BME280;39535;52.192;9.886;2023-03-21T02:55:15;100452.56;;;8.70;98.93
13952;BME280;39535;52.192;9.886;2023-03-21T02:57:43;100461.22;;;8.72;98.39
13952;BME280;39535;52.192;9.886;2023-03-21T03:00:16;100455.16;;;8.70;98.29
13952;BME280;39535;52.192;9.886;2023-03-21T03:02:44;100458.53;;;8.79;98.33
13952;BME280;39535;52.192;9.886;2023-03-21T03:05:13;100469.78;;;8.82;97.93
13952;BME280;39535;52.192;9.886;2023-03-21T03:07:52;100464.59;;;8.81;98.60
13952;BME280;39535;52.192;9.886;2023-03-21T03:10:42;100459.47;;;8.71;98.19
13952;BME280;39535;52.192;9.886;2023-03-21T03:13:20;100453.34;;;8.79;98.40
13952;BME280;39535;52.192;9.886;2023-03-21T03:15:59;100452.56;;;8.70;99.02
13952;BME280;39535;52.192;9.886;2023-03-21T03:18:35;100449.97;;;8.67;99.05
13952;BME280;39535;52.192;9.886;2023-03-21T03:21:09;100444.97;;;8.50;99.25
13952;BME280;39535;52.192;9.886;2023-03-21T03:23:43;100425.72;;;8.65;99.22
13952;BME280;39535;52.192;9.886;2023-03-21T03:26:14;100419.88;;;8.45;100.00
13952;BME280;39535;52.192;9.886;2023-03-21T03:28:46;100409.50;;;8.42;100.00
13952;BME280;39535;52.192;9.886;2023-03-21T03:31:17;100402.53;;;8.45;100.00
13952;BME280;39535;52.192;9.886;2023-03-21T03:33:48;100399.09;;;8.42;100.00
13952;BME280;39535;52.192;9.886;2023-03-21T03:36:17;100393.06;;;8.37;100.00
13952;BME280;39535;52.192;9.886;2023-03-21T03:38:45;100381.78;;;8.36;100.00
13952;BME280;39535;52.192;9.886;2023-03-21T03:41:18;100380.75;;;8.54;100.00
13952;BME280;39535;52.192;9.886;2023-03-21T03:43:50;100378.91;;;8.64;100.00
13952;BME280;39535;52.192;9.886;2023-03-21T03:46:24;100362.44;;;8.63;100.00
13952;BME280;39535;52.192;9.886;2023-03-21T03:48:54;100357.38;;;8.51;100.00
13952;BME280;39535;52.192;9.886;2023-03-21T03:51:24;100348.69;;;8.52;100.00
13952;BME280;39535;52.192;9.886;2023-03-21T03:53:56;100320.25;;;8.37;100.00
13952;BME280;39535;52.192;9.886;2023-03-21T03:56:25;100312.44;;;8.37;100.00
13952;BME280;39535;52.192;9.886;2023-03-21T03:58:52;100301.22;;;8.31;100.00
13952;BME280;39535;52.192;9.886;2023-03-21T04:01:18;100297.69;;;8.37;100.00
13952;BME280;39535;52.192;9.886;2023-03-21T04:03:46;100294.28;;;8.32;100.00
13952;BME280;39535;52.192;9.886;2023-03-21T04:06:13;100283.88;;;8.32;100.00
13952;BME280;39535;52.192;9.886;2023-03-21T04:08:40;100277.72;;;8.38;100.00
13952;BME280;39535;52.192;9.886;2023-03-21T04:11:09;100278.66;;;8.32;100.00
13952;BME280;39535;52.192;9.886;2023-03-21T04:13:35;100277.78;;;8.34;100.00
13952;BME280;39535;52.192;9.886;2023-03-21T04:16:01;100283.88;;;8.32;100.00
13952;BME280;39535;52.192;9.886;2023-03-21T04:18:29;100283.03;;;8.30;100.00
13952;BME280;39535;52.192;9.886;2023-03-21T04:20:56;100280.44;;;8.30;100.00
13952;BME280;39535;52.192;9.886;2023-03-21T04:23:22;100286.44;;;8.35;100.00
13952;BME280;39535;52.192;9.886;2023-03-21T04:25:49;100290.75;;;8.36;100.00
13952;BME280;39535;52.192;9.886;2023-03-21T04:28:17;100291.59;;;8.41;100.00
13952;BME280;39535;52.192;9.886;2023-03-21T04:30:46;100303.69;;;8.44;100.00
13952;BME280;39535;52.192;9.886;2023-03-21T04:33:15;100303.69;;;8.44;100.00
13952;BME280;39535;52.192;9.886;2023-03-21T04:35:41;100311.41;;;8.50;100.00
13952;BME280;39535;52.192;9.886;2023-03-21T04:38:10;100315.78;;;8.49;100.00
13952;BME280;39535;52.192;9.886;2023-03-21T04:40:37;100331.38;;;8.49;100.00
13952;BME280;39535;52.192;9.886;2023-03-21T04:43:03;100321.88;;;8.47;100.00
13952;BME280;39535;52.192;9.886;2023-03-21T04:45:31;100319.28;;;8.45;100.00
13952;BME280;39535;52.192;9.886;2023-03-21T04:47:57;100320.97;;;8.48;100.00
13952;BME280;39535;52.192;9.886;2023-03-21T04:50:23;100319.31;;;8.44;100.00
13952;BME280;39535;52.192;9.886;2023-03-21T04:52:50;100316.75;;;8.36;100.00
13952;BME280;39535;52.192;9.886;2023-03-21T04:55:16;100317.53;;;8.47;100.00
13952;BME280;39535;52.192;9.886;2023-03-21T04:57:45;100320.06;;;8.52;100.00
13952;BME280;39535;52.192;9.886;2023-03-21T05:00:13;100332.09;;;8.62;100.00
13952;BME280;39535;52.192;9.886;2023-03-21T05:02:41;100350.63;;;8.33;100.00
13952;BME280;39535;52.192;9.886;2023-03-21T05:05:08;100330.59;;;8.40;100.00
13952;BME280;39535;52.192;9.886;2023-03-21T05:07:36;100326.19;;;8.48;100.00
13952;BME280;39535;52.192;9.886;2023-03-21T05:10:04;100337.41;;;8.51;100.00
13952;BME280;39535;52.192;9.886;2023-03-21T05:12:30;100345.13;;;8.62;100.00
13952;BME280;39535;52.192;9.886;2023-03-21T05:14:57;100357.22;;;8.65;100.00
13952;BME280;39535;52.192;9.886;2023-03-21T05:17:23;100364.94;;;8.69;100.00
13952;BME280;39535;52.192;9.886;2023-03-21T05:19:54;100377.03;;;8.73;100.00
13952;BME280;39535;52.192;9.886;2023-03-21T05:22:22;100389.13;;;8.81;100.00
13952;BME280;39535;52.192;9.886;2023-03-21T05:24:51;100398.69;;;8.79;100.00
13952;BME280;39535;52.192;9.886;2023-03-21T05:27:20;100404.72;;;8.82;100.00
13952;BME280;39535;52.192;9.886;2023-03-21T05:29:59;100416.75;;;8.89;100.00
13952;BME280;39535;52.192;9.886;2023-03-21T05:32:26;100422.97;;;8.79;100.00
13952;BME280;39535;52.192;9.886;2023-03-21T05:34:53;100430.75;;;8.82;100.00
13952;BME280;39535;52.192;9.886;2023-03-21T05:37:20;100439.34;;;8.87;100.00
13952;BME280;39535;52.192;9.886;2023-03-21T05:39:47;100442.75;;;8.94;100.00
13952;BME280;39535;52.192;9.886;2023-03-21T05:42:13;100446.31;;;8.84;100.00
13952;BME280;39535;52.192;9.886;2023-03-21T05:44:40;100450.56;;;8.92;99.89
13952;BME280;39535;52.192;9.886;2023-03-21T05:47:06;100458.25;;;9.02;99.09
13952;BME280;39535;52.192;9.886;2023-03-21T05:49:33;100460.84;;;9.05;98.84
13952;BME280;39535;52.192;9.886;2023-03-21T05:52:00;100462.56;;;9.06;99.27
13952;BME280;39535;52.192;9.886;2023-03-21T05:54:27;100471.16;;;9.11;98.17
13952;BME280;39535;52.192;9.886;2023-03-21T05:56:53;100484.16;;;9.14;97.96
13952;BME280;39535;52.192;9.886;2023-03-21T05:59:20;100465.19;;;9.06;98.74
13952;BME280;39535;52.192;9.886;2023-03-21T06:01:46;100460.75;;;9.12;99.12
13952;BME280;39535;52.192;9.886;2023-03-21T06:04:13;100462.44;;;9.13;98.87
13952;BME280;39535;52.192;9.886;2023-03-21T06:06:39;100470.13;;;9.24;98.35
13952;BME280;39535;52.192;9.886;2023-03-21T06:09:07;100485.88;;;9.13;97.94
13952;BME280;39535;52.192;9.886;2023-03-21T06:11:35;100485.00;;;9.16;97.73
13952;BME280;39535;52.192;9.886;2023-03-21T06:14:02;100494.50;;;9.19;97.60
13952;BME280;39535;52.192;9.886;2023-03-21T06:16:29;100511.06;;;9.16;96.40
13952;BME280;39535;52.192;9.886;2023-03-21T06:18:55;100532.06;;;8.98;96.11
13952;BME280;39535;52.192;9.886;2023-03-21T06:21:22;100518.13;;;9.03;97.08
13952;BME280;39535;52.192;9.886;2023-03-21T06:23:48;100522.34;;;9.13;97.20
13952;BME280;39535;52.192;9.886;2023-03-21T06:26:17;100515.41;;;9.14;97.02
13952;BME280;39535;52.192;9.886;2023-03-21T06:28:47;100522.28;;;9.20;96.60
13952;BME280;39535;52.192;9.886;2023-03-21T06:31:13;100530.13;;;9.18;96.11
13952;BME280;39535;52.192;9.886;2023-03-21T06:33:40;100529.13;;;9.28;96.17
13952;BME280;39535;52.192;9.886;2023-03-21T06:36:07;100548.22;;;9.29;95.39
13952;BME280;39535;52.192;9.886;2023-03-21T06:38:34;100539.56;;;9.27;95.54
13952;BME280;39535;52.192;9.886;2023-03-21T06:41:02;100542.94;;;9.33;95.09
13952;BME280;39535;52.192;9.886;2023-03-21T06:43:30;100555.09;;;9.34;94.64
13952;BME280;39535;52.192;9.886;2023-03-21T06:45:57;100561.16;;;9.35;93.96
13952;BME280;39535;52.192;9.886;2023-03-21T06:48:23;100575.09;;;9.34;94.04
13952;BME280;39535;52.192;9.886;2023-03-21T06:50:50;100587.38;;;9.21;93.23
13952;BME280;39535;52.192;9.886;2023-03-21T06:53:17;100586.59;;;9.11;93.85
13952;BME280;39535;52.192;9.886;2023-03-21T06:55:48;100575.31;;;9.11;94.85
13952;BME280;39535;52.192;9.886;2023-03-21T06:58:14;100569.25;;;9.10;94.66
13952;BME280;39535;52.192;9.886;2023-03-21T07:00:42;100560.63;;;9.05;96.08
13952;BME280;39535;52.192;9.886;2023-03-21T07:03:08;100530.13;;;9.17;96.27
13952;BME280;39535;52.192;9.886;2023-03-21T07:05:35;100551.03;;;9.10;94.45
13952;BME280;39535;52.192;9.886;2023-03-21T07:08:02;100563.06;;;9.24;94.36
13952;BME280;39535;52.192;9.886;2023-03-21T07:10:29;100554.25;;;9.31;94.75
13952;BME280;39535;52.192;9.886;2023-03-21T07:12:57;100571.72;;;9.23;94.11
13952;BME280;39535;52.192;9.886;2023-03-21T07:15:24;100576.16;;;9.16;93.70
13952;BME280;39535;52.192;9.886;2023-03-21T07:17:52;100563.91;;;9.23;94.25
13952;BME280;39535;52.192;9.886;2023-03-21T07:20:18;100560.31;;;9.33;94.53
13952;BME280;39535;52.192;9.886;2023-03-21T07:22:45;100569.88;;;9.36;93.58
13952;BME280;39535;52.192;9.886;2023-03-21T07:25:11;100586.28;;;9.39;92.61
13952;BME280;39535;52.192;9.886;2023-03-21T07:27:38;100604.56;;;9.38;92.25
13952;BME280;39535;52.192;9.886;2023-03-21T07:30:05;100608.06;;;9.33;92.34
13952;BME280;39535;52.192;9.886;2023-03-21T07:32:32;100616.63;;;9.43;92.48
13952;BME280;39535;52.192;9.886;2023-03-21T07:35:00;100625.38;;;9.39;91.53
13952;BME280;39535;52.192;9.886;2023-03-21T07:37:26;100623.69;;;9.37;91.55
13952;BME280;39535;52.192;9.886;2023-03-21T07:39:52;100623.53;;;9.47;92.07
13952;BME280;39535;52.192;9.886;2023-03-21T07:42:19;100621.09;;;9.33;91.49
13952;BME280;39535;52.192;9.886;2023-03-21T07:44:45;100624.50;;;9.40;91.19
13952;BME280;39535;52.192;9.886;2023-03-21T07:47:11;100634.84;;;9.46;91.01
13952;BME280;39535;52.192;9.886;2023-03-21T07:49:38;100619.94;;;9.59;91.94
13952;BME280;39535;52.192;9.886;2023-03-21T07:52:05;100624.44;;;9.45;90.10
13952;BME280;39535;52.192;9.886;2023-03-21T07:54:32;100640.81;;;9.56;90.26
13952;BME280;39535;52.192;9.886;2023-03-21T07:56:59;100627.91;;;9.47;90.82
13952;BME280;39535;52.192;9.886;2023-03-21T07:59:25;100629.66;;;9.45;91.30
13952;BME280;39535;52.192;9.886;2023-03-21T08:01:52;100630.47;;;9.50;90.22
13952;BME280;39535;52.192;9.886;2023-03-21T08:04:18;100643.44;;;9.58;90.11
13952;BME280;39535;52.192;9.886;2023-03-21T08:06:45;100658.22;;;9.54;89.77
13952;BME280;39535;52.192;9.886;2023-03-21T08:09:12;100642.44;;;9.68;90.33
13952;BME280;39535;52.192;9.886;2023-03-21T08:11:39;100655.41;;;9.71;89.26
13952;BME280;39535;52.192;9.886;2023-03-21T08:14:06;100666.72;;;9.70;89.28
13952;BME280;39535;52.192;9.886;2023-03-21T08:16:32;100688.50;;;9.64;88.67
13952;BME280;39535;52.192;9.886;2023-03-21T08:18:58;100678.00;;;9.72;89.33
13952;BME280;39535;52.192;9.886;2023-03-21T08:21:25;100680.59;;;9.73;89.23
13952;BME280;39535;52.192;9.886;2023-03-21T08:23:52;100671.94;;;9.70;89.18
13952;BME280;39535;52.192;9.886;2023-03-21T08:26:19;100676.06;;;9.88;89.26
13952;BME280;39535;52.192;9.886;2023-03-21T08:28:49;100676.84;;;9.96;88.88
13952;BME280;39535;52.192;9.886;2023-03-21T08:31:15;100685.41;;;10.07;88.14
13952;BME280;39535;52.192;9.886;2023-03-21T08:33:42;100706.25;;;10.07;87.17
13952;BME280;39535;52.192;9.886;2023-03-21T08:36:09;100715.75;;;10.13;87.61
13952;BME280;39535;52.192;9.886;2023-03-21T08:38:35;100714.78;;;10.19;87.76
13952;BME280;39535;52.192;9.886;2023-03-21T08:41:02;100698.09;;;10.35;88.06
13952;BME280;39535;52.192;9.886;2023-03-21T08:43:30;100719.22;;;10.13;86.60
13952;BME280;39535;52.192;9.886;2023-03-21T08:45:56;100727.97;;;10.11;87.03
13952;BME280;39535;52.192;9.886;2023-03-21T08:48:23;100712.97;;;10.27;87.52
13952;BME280;39535;52.192;9.886;2023-03-21T08:50:49;100717.34;;;10.25;87.26
13952;BME280;39535;52.192;9.886;2023-03-21T08:53:16;100699.88;;;10.33;87.29
13952;BME280;39535;52.192;9.886;2023-03-21T08:55:42;100725.06;;;10.34;86.57
13952;BME280;39535;52.192;9.886;2023-03-21T08:58:08;100731.97;;;10.40;86.98
13952;BME280;39535;52.192;9.886;2023-03-21T09:00:36;100733.72;;;10.38;86.49
13952;BME280;39535;52.192;9.886;2023-03-21T09:03:03;100747.75;;;10.27;86.35
13952;BME280;39535;52.192;9.886;2023-03-21T09:05:29;100716.34;;;10.37;87.02
13952;BME280;39535;52.192;9.886;2023-03-21T09:07:56;100700.47;;;10.52;87.05
13952;BME280;39535;52.192;9.886;2023-03-21T09:10:22;100718.63;;;10.58;85.84
13952;BME280;39535;52.192;9.886;2023-03-21T09:12:50;100738.78;;;10.50;85.84
13952;BME280;39535;52.192;9.886;2023-03-21T09:15:17;100732.53;;;10.60;85.26
13952;BME280;39535;52.192;9.886;2023-03-21T09:17:47;100740.31;;;10.65;85.46
13952;BME280;39535;52.192;9.886;2023-03-21T09:20:14;100744.53;;;10.73;84.59
13952;BME280;39535;52.192;9.886;2023-03-21T09:22:43;100725.94;;;10.95;86.31
13952;BME280;39535;52.192;9.886;2023-03-21T09:25:10;100765.41;;;10.75;83.15
13952;BME280;39535;52.192;9.886;2023-03-21T09:27:38;100781.59;;;11.00;83.29
13952;BME280;39535;52.192;9.886;2023-03-21T09:30:05;100786.75;;;11.03;83.54
13952;BME280;39535;52.192;9.886;2023-03-21T09:32:34;100799.03;;;10.97;83.46
13952;BME280;39535;52.192;9.886;2023-03-21T09:35:01;100814.75;;;10.93;82.40
13952;BME280;39535;52.192;9.886;2023-03-21T09:37:29;100827.78;;;10.97;82.00
13952;BME280;39535;52.192;9.886;2023-03-21T09:39:56;100818.16;;;11.00;82.60
13952;BME280;39535;52.192;9.886;2023-03-21T09:42:31;100804.91;;;11.12;83.09
13952;BME280;39535;52.192;9.886;2023-03-21T09:45:06;100784.63;;;11.28;83.56
13952;BME280;39535;52.192;9.886;2023-03-21T09:47:38;100780.84;;;11.45;83.07
13952;BME280;39535;52.192;9.886;2023-03-21T09:50:17;100794.66;;;11.53;82.83
13952;BME280;39535;52.192;9.886;2023-03-21T09:52:49;100809.25;;;11.66;81.29
13952;BME280;39535;52.192;9.886;2023-03-21T09:55:19;100850.13;;;11.70;79.70
13952;BME280;39535;52.192;9.886;2023-03-21T09:57:48;100851.56;;;11.91;80.81
13952;BME280;39535;52.192;9.886;2023-03-21T10:00:20;100876.16;;;11.78;77.94
13952;BME280;39535;52.192;9.886;2023-03-21T10:02:50;100927.56;;;11.79;77.50
13952;BME280;39535;52.192;9.886;2023-03-21T10:05:22;100916.91;;;11.93;79.11
13952;BME280;39535;52.192;9.886;2023-03-21T10:07:52;100901.09;;;12.01;79.03
13952;BME280;39535;52.192;9.886;2023-03-21T10:10:24;100929.22;;;11.86;79.04
13952;BME280;39535;52.192;9.886;2023-03-21T10:12:54;100925.84;;;11.80;78.46
13952;BME280;39535;52.192;9.886;2023-03-21T10:15:23;100934.63;;;11.76;77.99
13952;BME280;39535;52.192;9.886;2023-03-21T10:17:54;100941.75;;;11.67;77.92
13952;BME280;39535;52.192;9.886;2023-03-21T10:20:25;100936.63;;;11.58;77.76
13952;BME280;39535;52.192;9.886;2023-03-21T10:22:53;100939.16;;;11.63;78.10
13952;BME280;39535;52.192;9.886;2023-03-21T10:25:21;100906.84;;;11.67;78.31
13952;BME280;39535;52.192;9.886;2023-03-21T10:27:50;100930.91;;;11.31;78.78
13952;BME280;39535;52.192;9.886;2023-03-21T10:30:27;100898.56;;;11.42;79.52
13952;BME280;39535;52.192;9.886;2023-03-21T10:32:56;100867.09;;;11.48;79.78
13952;BME280;39535;52.192;9.886;2023-03-21T10:35:27;100837.25;;;11.60;80.91
13952;BME280;39535;52.192;9.886;2023-03-21T10:37:55;100826.72;;;11.64;80.95
13952;BME280;39535;52.192;9.886;2023-03-21T10:40:21;100780.50;;;11.65;83.30
13952;BME280;39535;52.192;9.886;2023-03-21T10:42:48;100737.75;;;11.67;84.04
13952;BME280;39535;52.192;9.886;2023-03-21T10:45:16;100717.00;;;11.60;84.16
13952;BME280;39535;52.192;9.886;2023-03-21T10:47:46;100704.81;;;11.57;84.31
13952;BME280;39535;52.192;9.886;2023-03-21T10:50:15;100679.38;;;11.65;85.05
13952;BME280;39535;52.192;9.886;2023-03-21T10:52:45;100665.47;;;11.63;85.07
13952;BME280;39535;52.192;9.886;2023-03-21T10:55:22;100651.28;;;11.77;85.39
13952;BME280;39535;52.192;9.886;2023-03-21T10:57:56;100663.38;;;11.82;84.62
13952;BME280;39535;52.192;9.886;2023-03-21T11:00:27;100664.19;;;11.84;84.69
13952;BME280;39535;52.192;9.886;2023-03-21T11:02:54;100675.63;;;11.79;84.22
13952;BME280;39535;52.192;9.886;2023-03-21T11:05:24;100662.38;;;11.89;84.93
13952;BME280;39535;52.192;9.886;2023-03-21T11:08:02;100666.84;;;11.83;84.46
13952;BME280;39535;52.192;9.886;2023-03-21T11:10:31;100639.19;;;11.71;85.72
13952;BME280;39535;52.192;9.886;2023-03-21T11:13:02;100642.47;;;11.36;85.72
13952;BME280;39535;52.192;9.886;2023-03-21T11:15:32;100601.16;;;11.56;87.83
13952;BME280;39535;52.192;9.886;2023-03-21T11:18:15;100565.19;;;11.67;88.97
13952;BME280;39535;52.192;9.886;2023-03-21T11:20:47;100523.25;;;11.70;89.97
13952;BME280;39535;52.192;9.886;2023-03-21T11:23:16;100547.03;;;11.60;88.25
13952;BME280;39535;52.192;9.886;2023-03-21T11:25:42;100546.94;;;11.64;88.97
13952;BME280;39535;52.192;9.886;2023-03-21T11:28:13;100540.19;;;11.54;88.44
13952;BME280;39535;52.192;9.886;2023-03-21T11:30:49;100526.25;;;11.53;88.93
13952;BME280;39535;52.192;9.886;2023-03-21T11:33:16;100514.06;;;11.52;90.15
13952;BME280;39535;52.192;9.886;2023-03-21T11:35:57;100513.78;;;11.26;88.11
13952;BME280;39535;52.192;9.886;2023-03-21T11:38:26;100515.38;;;11.31;89.90
13952;BME280;39535;52.192;9.886;2023-03-21T11:40:57;100497.16;;;11.28;89.99
13952;BME280;39535;52.192;9.886;2023-03-21T11:43:27;100500.94;;;11.13;90.10
13952;BME280;39535;52.192;9.886;2023-03-21T11:45:59;100476.16;;;11.33;90.92
13952;BME280;39535;52.192;9.886;2023-03-21T11:48:26;100456.00;;;11.38;91.79
13952;BME280;39535;52.192;9.886;2023-03-21T11:50:57;100454.13;;;11.45;91.20
13952;BME280;39535;52.192;9.886;2023-03-21T11:53:36;100484.09;;;11.28;90.52
13952;BME280;39535;52.192;9.886;2023-03-21T11:56:19;100439.38;;;11.42;92.89
13952;BME280;39535;52.192;9.886;2023-03-21T11:59:02;100411.78;;;11.29;93.12
13952;BME280;39535;52.192;9.886;2023-03-21T12:01:37;100395.75;;;11.44;94.66
13952;BME280;39535;52.192;9.886;2023-03-21T12:04:24;100371.72;;;11.28;94.87
13952;BME280;39535;52.192;9.886;2023-03-21T12:07:00;100357.31;;;11.12;95.82
13952;BME280;39535;52.192;9.886;2023-03-21T12:09:36;100332.13;;;11.08;96.66
13952;BME280;39535;52.192;9.886;2023-03-21T12:12:10;100320.22;;;10.96;97.03
13952;BME280;39535;52.192;9.886;2023-03-21T12:14:49;100324.56;;;10.96;95.40
13952;BME280;39535;52.192;9.886;2023-03-21T12:17:28;100320.75;;;11.10;96.34
13952;BME280;39535;52.192;9.886;2023-03-21T12:20:06;100316.78;;;11.31;96.41
13952;BME280;39535;52.192;9.886;2023-03-21T12:22:44;100330.38;;;11.10;96.53
13952;BME280;39535;52.192;9.886;2023-03-21T12:25:19;100326.81;;;11.12;96.20
13952;BME280;39535;52.192;9.886;2023-03-21T12:27:52;100323.22;;;11.17;96.05
13952;BME280;39535;52.192;9.886;2023-03-21T12:30:32;100342.72;;;11.02;95.47
13952;BME280;39535;52.192;9.886;2023-03-21T12:33:13;100324.06;;;11.19;96.39
13952;BME280;39535;52.192;9.886;2023-03-21T12:35:52;100317.81;;;11.26;96.69
13952;BME280;39535;52.192;9.886;2023-03-21T12:38:22;100322.31;;;11.18;96.36
13952;BME280;39535;52.192;9.886;2023-03-21T12:41:20;100309.56;;;11.05;96.95
13952;BME280;39535;52.192;9.886;2023-03-21T12:43:49;100300.59;;;11.16;97.32
13952;BME280;39535;52.192;9.886;2023-03-21T12:46:21;100290.28;;;11.11;97.77
13952;BME280;39535;52.192;9.886;2023-03-21T12:48:51;100286.47;;;11.24;97.62
13952;BME280;39535;52.192;9.886;2023-03-21T12:51:22;100277.56;;;11.31;98.58
13952;BME280;39535;52.192;9.886;2023-03-21T12:53:55;100276.53;;;11.39;99.04
13952;BME280;39535;52.192;9.886;2023-03-21T12:56:28;100270.50;;;11.37;98.29
13952;BME280;39535;52.192;9.886;2023-03-21T12:59:00;100272.00;;;11.45;98.19
13952;BME280;39535;52.192;9.886;2023-03-21T13:01:28;100271.72;;;11.58;98.86
13952;BME280;39535;52.192;9.886;2023-03-21T13:04:13;100283.06;;;11.21;98.02
13952;BME280;39535;52.192;9.886;2023-03-21T13:06:42;100266.22;;;11.34;99.07
13952;BME280;39535;52.192;9.886;2023-03-21T13:09:14;100265.28;;;10.99;99.15
13952;BME280;39535;52.192;9.886;2023-03-21T13:11:44;100241.56;;;11.10;99.55